Time;durP1;ratioP1;P1;durP2;ratioP2;P2;SDS_P1;SDS_P2;PMS_P1;PMS_P2;Temp;Humidity;BMP_temperature;BMP_pressure;BME280_temperature;BME280_humidity;BME280_pressure;Samples;Min_cycle;Max_cycle;Signal;HPM_P1;HPM_P2
2022/05/04 00:00:23;;;;;;;17.50;14.40;;;;;;;10.54;58.17;97888.59;104874;1287;26093;-86
2022/05/04 00:03:02;;;;;;;13.80;12.40;;;;;;;10.58;57.93;97889.59;105517;1287;22496;-84
2022/05/04 00:05:31;;;;;;;15.80;14.00;;;;;;;10.59;58.16;97891.73;105919;1286;22702;-83
2022/05/04 00:07:59;;;;;;;16.30;14.00;;;;;;;10.61;58.12;97894.33;104830;1289;22611;-86
2022/05/04 00:10:27;;;;;;;18.30;16.50;;;;;;;10.63;58.08;97898.12;105190;1287;22635;-85
2022/05/04 00:12:54;;;;;;;16.90;15.10;;;;;;;10.66;57.91;97898.45;105035;1287;24107;-86
2022/05/04 00:15:23;;;;;;;14.60;13.10;;;;;;;10.69;58.21;97900.60;105141;1286;25564;-84
2022/05/04 00:17:52;;;;;;;14.80;13.40;;;;;;;10.70;58.34;97900.56;105118;1287;24388;-86
2022/05/04 00:20:20;;;;;;;14.20;12.80;;;;;;;10.72;58.04;97901.71;105124;1287;22622;-83
2022/05/04 00:22:48;;;;;;;13.00;11.80;;;;;;;10.75;58.14;97904.58;105175;1287;22563;-85
2022/05/04 00:25:16;;;;;;;14.00;12.70;;;;;;;10.79;58.14;97903.20;105103;1287;25368;-83
2022/05/04 00:27:44;;;;;;;14.60;13.10;;;;;;;10.81;57.82;97902.08;104902;1287;25378;-84
2022/05/04 00:30:12;;;;;;;14.30;12.90;;;;;;;10.84;57.94;97901.00;105098;1287;22590;-83
2022/05/04 00:32:41;;;;;;;16.70;14.00;;;;;;;10.85;57.81;97902.60;105183;1287;26599;-83
2022/05/04 00:35:09;;;;;;;16.00;14.40;;;;;;;10.85;57.97;97899.59;105342;1287;22566;-84
2022/05/04 00:37:37;;;;;;;17.60;14.80;;;;;;;10.84;57.74;97900.20;105137;1289;24117;-83
2022/05/04 00:40:06;;;;;;;17.60;15.00;;;;;;;10.82;57.78;97899.95;105183;1287;24448;-83
2022/05/04 00:42:34;;;;;;;15.50;13.90;;;;;;;10.82;57.86;97898.98;105191;1287;22586;-83
2022/05/04 00:45:02;;;;;;;16.80;14.90;;;;;;;10.81;57.90;97896.42;105192;1287;22585;-83
2022/05/04 00:47:30;;;;;;;14.30;12.90;;;;;;;10.81;57.86;97898.36;105053;1287;25225;-84
2022/05/04 00:50:08;;;;;;;13.10;11.30;;;;;;;10.81;57.95;97900.64;105164;1287;22922;-83
2022/05/04 00:52:40;;;;;;;12.30;11.00;;;;;;;10.82;57.88;97908.38;105101;1287;22563;-83
2022/05/04 00:55:09;;;;;;;12.60;11.30;;;;;;;10.83;57.92;97913.20;105122;1288;25498;-82
2022/05/04 01:00:28;;;;;;;11.10;10.00;;;;;;;10.91;57.82;97910.79;105060;1287;24237;-86
2022/05/04 01:02:56;;;;;;;13.80;12.30;;;;;;;10.94;57.80;97914.17;105231;1287;26658;-87
2022/05/04 01:05:24;;;;;;;12.90;11.10;;;;;;;10.96;57.84;97916.41;105325;1287;22566;-89
2022/05/04 01:07:52;;;;;;;13.60;11.70;;;;;;;10.96;57.62;97913.88;105287;1288;22557;-88
2022/05/04 01:10:20;;;;;;;13.60;12.30;;;;;;;10.97;57.79;97914.88;105481;1287;25412;-87
2022/05/04 01:12:50;;;;;;;13.30;12.00;;;;;;;10.97;57.87;97912.56;105285;1287;22751;-84
2022/05/04 01:15:19;;;;;;;13.20;11.40;;;;;;;10.96;58.00;97915.65;104967;1287;22561;-88
2022/05/04 01:17:48;;;;;;;14.30;12.80;;;;;;;10.94;57.96;97913.48;105622;1287;25385;-84
2022/05/04 01:20:17;;;;;;;13.60;12.30;;;;;;;10.93;57.80;97915.71;106012;1287;25385;-88
2022/05/04 01:22:45;;;;;;;21.90;20.00;;;;;;;10.89;57.97;97922.74;105437;1287;23972;-88
2022/05/04 01:25:13;;;;;;;14.80;13.40;;;;;;;10.81;57.80;97916.20;105340;1287;22754;-90
2022/05/04 01:27:41;;;;;;;12.80;11.50;;;;;;;10.74;57.89;97921.30;105410;1287;22683;-88
2022/05/04 01:30:11;;;;;;;13.60;11.30;;;;;;;10.69;58.26;97922.00;105296;1287;22672;-89
2022/05/04 01:32:39;;;;;;;12.60;11.30;;;;;;;10.64;58.34;97923.72;105329;1287;23435;-89
2022/05/04 01:35:08;;;;;;;13.50;12.20;;;;;;;10.60;58.57;97923.55;105743;1287;25582;-87
2022/05/04 01:37:36;;;;;;;13.30;12.00;;;;;;;10.56;58.48;97920.67;105561;1287;22746;-88
2022/05/04 01:40:05;;;;;;;13.50;11.50;;;;;;;10.52;58.38;97926.35;105356;1287;23367;-84
2022/05/04 01:42:33;;;;;;;13.50;11.90;;;;;;;10.46;58.50;97926.55;105130;1288;22576;-89
2022/05/04 01:45:03;;;;;;;12.70;11.10;;;;;;;10.41;58.67;97928.64;107771;1286;22608;-86
2022/05/04 01:47:59;;;;;;;13.30;10.70;;;;;;;10.34;58.80;97931.57;106100;1287;24236;-89
2022/05/04 01:50:26;;;;;;;15.10;12.70;;;;;;;10.30;58.77;97933.58;105315;1287;22681;-90
2022/05/04 01:52:54;;;;;;;13.50;11.80;;;;;;;10.28;59.30;97931.67;105260;1288;22710;-88
2022/05/04 01:55:23;;;;;;;13.40;12.00;;;;;;;10.26;59.33;97930.61;105325;1287;22718;-88
2022/05/04 01:57:51;;;;;;;16.80;14.00;;;;;;;10.24;59.30;97932.69;105437;1287;25431;-89
2022/05/04 02:00:19;;;;;;;13.90;12.40;;;;;;;10.21;59.17;97935.48;105154;1286;24410;-89
2022/05/04 02:02:47;;;;;;;15.00;13.40;;;;;;;10.17;59.45;97938.67;105306;1286;23266;-89
2022/05/04 02:05:15;;;;;;;19.80;17.80;;;;;;;10.10;59.47;97940.19;105381;1287;25295;-85
2022/05/04 02:07:43;;;;;;;33.10;25.10;;;;;;;10.02;59.81;97944.29;105078;1287;22705;-89
2022/05/04 02:10:12;;;;;;;36.40;28.60;;;;;;;9.93;59.54;97947.23;105274;1289;22678;-89
2022/05/04 02:12:40;;;;;;;24.90;22.30;;;;;;;9.82;59.66;97951.17;105266;1287;24804;-87
2022/05/04 02:15:10;;;;;;;15.50;13.90;;;;;;;9.69;60.36;97957.22;105486;1286;22497;-89
2022/05/04 02:17:38;;;;;;;16.70;12.30;;;;;;;9.62;60.33;97957.00;105384;1287;23194;-87
2022/05/04 02:20:07;;;;;;;16.90;13.60;;;;;;;9.59;60.44;97956.13;105301;1289;25941;-88
2022/05/04 02:22:35;;;;;;;16.40;14.80;;;;;;;9.60;60.99;97956.23;105151;1287;22678;-87
2022/05/04 02:25:03;;;;;;;16.90;14.70;;;;;;;9.62;61.06;97949.15;105166;1288;22698;-88
2022/05/04 02:27:31;;;;;;;19.50;16.70;;;;;;;9.66;60.95;97941.08;105230;1287;25424;-89
2022/05/04 02:29:59;;;;;;;19.70;15.30;;;;;;;9.67;60.96;97936.68;105275;1286;22567;-89
2022/05/04 02:32:27;;;;;;;17.10;14.20;;;;;;;9.69;61.15;97936.80;105513;1287;22692;-86
2022/05/04 02:38:00;;;;;;;15.90;14.00;;;;;;;9.65;61.44;97945.27;105723;1286;25251;-89
2022/05/04 02:40:28;;;;;;;13.50;11.30;;;;;;;9.55;61.22;97953.81;105208;1286;22790;-88
2022/05/04 02:42:56;;;;;;;14.40;12.90;;;;;;;9.41;61.10;97950.52;105033;1286;22813;-89
2022/05/04 02:45:24;;;;;;;15.60;13.80;;;;;;;9.30;61.02;97944.52;105255;1286;22701;-90
2022/05/04 02:47:52;;;;;;;16.10;12.50;;;;;;;9.26;61.40;97948.02;105344;1287;22677;-87
2022/05/04 02:50:20;;;;;;;14.00;12.60;;;;;;;9.26;61.55;97945.05;105217;1287;22774;-88
2022/05/04 02:52:48;;;;;;;15.80;12.60;;;;;;;9.27;61.60;97948.98;105163;1287;22566;-90
2022/05/04 02:55:16;;;;;;;16.60;13.10;;;;;;;9.26;61.81;97942.90;105257;1287;22590;-90
2022/05/04 02:57:44;;;;;;;15.50;12.60;;;;;;;9.25;61.89;97944.59;105240;1288;22719;-92
2022/05/04 03:00:13;;;;;;;17.10;13.80;;;;;;;9.21;61.55;97942.06;105415;1286;22584;-89
2022/05/04 03:02:41;;;;;;;15.90;14.30;;;;;;;9.19;61.87;97945.90;105250;1287;22702;-91
2022/05/04 03:05:11;;;;;;;16.10;14.60;;;;;;;9.16;61.81;97946.27;105321;1288;22609;-92
2022/05/04 03:07:38;;;;;;;15.30;13.10;;;;;;;9.13;61.58;97950.02;105356;1287;24396;-89
2022/05/04 03:10:07;;;;;;;14.90;12.90;;;;;;;9.07;61.93;97956.10;105299;1289;22864;-91
2022/05/04 03:12:36;;;;;;;15.70;12.70;;;;;;;8.99;61.86;97959.20;105250;1287;22782;-90
2022/05/04 03:15:04;;;;;;;12.40;11.20;;;;;;;8.90;61.94;97961.66;105217;1287;22570;-91
2022/05/04 03:17:33;;;;;;;13.00;11.60;;;;;;;8.84;62.11;97962.80;105305;1287;22891;-89
2022/05/04 03:20:01;;;;;;;14.00;10.80;;;;;;;8.84;61.92;97961.88;105512;1287;25375;-90
2022/05/04 03:22:29;;;;;;;14.90;11.60;;;;;;;8.87;62.19;97959.71;105341;1289;22575;-90
2022/05/04 03:24:58;;;;;;;14.40;11.30;;;;;;;8.92;62.37;97961.70;108161;1287;22556;-85
2022/05/04 03:27:25;;;;;;;13.50;12.10;;;;;;;8.96;62.58;97968.21;105733;1287;25364;-89
2022/05/04 03:29:53;;;;;;;13.20;11.90;;;;;;;8.97;62.36;97971.32;105680;1287;23840;-89
2022/05/04 03:32:22;;;;;;;14.20;12.30;;;;;;;8.97;62.16;97972.30;105638;1287;22751;-90
2022/05/04 03:34:50;;;;;;;18.40;15.10;;;;;;;8.95;62.39;97972.37;106430;1287;22726;-89
2022/05/04 03:37:18;;;;;;;14.50;12.80;;;;;;;8.90;62.31;97975.16;105323;1287;22861;-91
2022/05/04 03:39:46;;;;;;;12.30;11.10;;;;;;;8.77;63.00;97985.40;105378;1287;26651;-89
2022/05/04 03:42:13;;;;;;;12.00;10.30;;;;;;;8.65;64.53;97993.73;105337;1287;23927;-90
2022/05/04 03:44:41;;;;;;;14.60;11.70;;;;;;;8.68;64.65;97996.89;105308;1287;25405;-90
2022/05/04 03:47:09;;;;;;;13.50;12.20;;;;;;;8.82;64.58;97995.93;105273;1287;25483;-91
2022/05/04 03:49:37;;;;;;;14.40;13.00;;;;;;;9.00;63.84;97993.70;105279;1287;25254;-89
2022/05/04 03:52:05;;;;;;;15.70;14.10;;;;;;;9.13;63.33;97990.33;105316;1287;22633;-89
2022/05/04 03:54:33;;;;;;;14.60;13.10;;;;;;;9.23;63.27;97994.89;104882;1288;25430;-90
2022/05/04 03:57:01;;;;;;;13.90;11.80;;;;;;;9.30;62.95;97987.48;105272;1287;22555;-91
2022/05/04 03:59:31;;;;;;;11.30;10.10;;;;;;;9.38;63.12;97984.48;105267;1287;22733;-91
2022/05/04 04:02:00;;;;;;;12.20;9.70;;;;;;;9.49;63.15;97984.40;105305;1287;22612;-92
2022/05/04 04:04:28;;;;;;;9.90;8.90;;;;;;;9.60;62.64;97981.94;105303;1287;22686;-90
2022/05/04 04:06:56;;;;;;;12.00;9.10;;;;;;;9.68;63.00;97982.70;105324;1287;25535;-91
2022/05/04 04:09:24;;;;;;;10.40;8.60;;;;;;;9.74;62.37;97982.44;104967;1288;22711;-92
2022/05/04 04:11:52;;;;;;;12.40;8.90;;;;;;;9.82;62.11;97985.41;105299;1287;25530;-93
2022/05/04 04:14:19;;;;;;;14.20;11.50;;;;;;;9.87;62.22;97988.55;105250;1287;22619;-90
2022/05/04 04:16:47;;;;;;;13.90;12.10;;;;;;;9.90;62.09;97990.30;105134;1287;22629;-84
2022/05/04 04:19:15;;;;;;;16.90;14.20;;;;;;;9.91;61.95;97993.72;105198;1287;25387;-88
2022/05/04 04:21:53;;;;;;;15.30;13.20;;;;;;;9.90;62.14;97997.35;105447;1287;22617;-89
2022/05/04 04:24:22;;;;;;;16.50;14.70;;;;;;;9.87;61.89;97996.04;105450;1287;22579;-88
2022/05/04 04:26:50;;;;;;;53.00;48.50;;;;;;;9.86;62.04;97995.58;105319;1287;24822;-88
2022/05/04 04:29:18;;;;;;;21.50;19.50;;;;;;;9.85;62.11;97997.73;105033;1287;22641;-90
2022/05/04 04:31:46;;;;;;;16.00;14.10;;;;;;;9.83;61.99;97995.63;105029;1287;24264;-91
2022/05/04 04:34:14;;;;;;;19.80;14.00;;;;;;;9.80;62.08;97999.54;105460;1287;22685;-89
2022/05/04 04:36:43;;;;;;;20.90;17.00;;;;;;;9.81;62.02;97999.41;105924;1287;22575;-89
2022/05/04 04:39:11;;;;;;;17.50;13.20;;;;;;;9.86;62.10;97999.55;105310;1287;26535;-90
2022/05/04 04:41:39;;;;;;;17.80;12.90;;;;;;;9.93;62.41;98005.05;105253;1287;22557;-89
2022/05/04 04:44:07;;;;;;;20.70;13.70;;;;;;;10.00;62.04;98007.00;105276;1288;22558;-89
2022/05/04 04:46:34;;;;;;;15.70;12.70;;;;;;;10.06;62.01;98012.82;105241;1287;22895;-88
2022/05/04 04:49:02;;;;;;;40.30;30.40;;;;;;;10.13;62.27;98012.63;105291;1288;22583;-88
2022/05/04 04:51:30;;;;;;;65.20;40.80;;;;;;;10.20;62.55;98009.43;105261;1288;25510;-87
2022/05/04 04:53:58;;;;;;;32.30;23.40;;;;;;;10.27;62.29;98011.39;105351;1288;22605;-90
2022/05/04 04:56:26;;;;;;;18.00;15.60;;;;;;;10.35;62.15;98011.02;105282;1287;25562;-89
2022/05/04 04:58:54;;;;;;;15.20;13.30;;;;;;;10.44;62.35;98006.44;105004;1287;25499;-88
2022/05/04 05:01:21;;;;;;;16.40;12.70;;;;;;;10.54;62.24;98007.25;105192;1287;24435;-88
2022/05/04 05:03:49;;;;;;;18.70;13.00;;;;;;;10.64;62.19;98008.31;107188;1287;22536;-85
2022/05/04 05:06:19;;;;;;;15.10;10.60;;;;;;;10.77;62.18;98006.00;106209;1287;22494;-86
2022/05/04 05:08:48;;;;;;;13.60;9.80;;;;;;;10.91;62.21;98008.21;105059;1287;23329;-90
2022/05/04 05:11:16;;;;;;;10.40;9.00;;;;;;;11.07;62.00;98009.00;105279;1287;23380;-89
2022/05/04 05:16:31;;;;;;;12.60;8.30;;;;;;;11.41;61.72;98016.95;108516;1286;22636;-81
2022/05/04 05:18:59;;;;;;;12.50;9.60;;;;;;;11.57;61.68;98016.59;108430;1287;22627;-84
2022/05/04 05:21:28;;;;;;;11.20;8.10;;;;;;;11.72;61.55;98016.41;108052;1287;22546;-88
2022/05/04 05:23:55;;;;;;;10.30;8.70;;;;;;;11.86;61.51;98016.02;107869;1287;22858;-87
2022/05/04 05:26:23;;;;;;;9.20;8.30;;;;;;;11.99;61.18;98015.54;106103;1287;23586;-89
2022/05/04 05:28:52;;;;;;;9.10;7.70;;;;;;;12.10;60.84;98019.16;105241;1288;22554;-89
2022/05/04 05:31:20;;;;;;;13.80;7.70;;;;;;;12.22;60.90;98019.42;105284;1287;22646;-90
2022/05/04 05:33:48;;;;;;;10.10;8.00;;;;;;;12.34;60.74;98023.38;105357;1287;24457;-89
2022/05/04 05:36:16;;;;;;;12.00;7.80;;;;;;;12.45;60.56;98022.52;105239;1288;22581;-89
2022/05/04 05:38:44;;;;;;;11.00;8.10;;;;;;;12.55;60.05;98025.88;105358;1287;25329;-87
2022/05/04 05:41:12;;;;;;;10.00;8.50;;;;;;;12.63;59.94;98027.08;105267;1286;22699;-87
2022/05/04 05:43:40;;;;;;;11.10;8.00;;;;;;;12.71;59.86;98031.27;105167;1286;22938;-87
2022/05/04 05:46:07;;;;;;;12.00;8.20;;;;;;;12.80;59.77;98031.50;105467;1286;24285;-86
2022/05/04 05:48:36;;;;;;;11.90;8.70;;;;;;;12.87;59.65;98032.91;105643;1287;22559;-89
2022/05/04 05:51:05;;;;;;;13.00;9.10;;;;;;;12.96;59.43;98027.13;105774;1286;25161;-91
2022/05/04 05:53:34;;;;;;;11.60;9.20;;;;;;;13.05;59.06;98031.02;105812;1286;22553;-90
2022/05/04 05:56:02;;;;;;;12.50;9.60;;;;;;;13.15;58.99;98032.66;105297;1288;24356;-90
2022/05/04 05:58:30;;;;;;;12.80;9.50;;;;;;;13.26;58.86;98030.34;105314;1287;25808;-89
2022/05/04 06:00:58;;;;;;;14.40;12.80;;;;;;;13.37;58.71;98027.48;105270;1286;25344;-87
2022/05/04 06:03:26;;;;;;;14.70;11.30;;;;;;;13.43;58.26;98026.73;105015;1289;24265;-90
2022/05/04 06:05:54;;;;;;;12.50;10.70;;;;;;;13.48;58.07;98031.02;105008;1287;22636;-89
2022/05/04 06:08:22;;;;;;;15.30;11.00;;;;;;;13.52;57.78;98036.32;105295;1287;23789;-89
2022/05/04 06:10:50;;;;;;;10.90;9.80;;;;;;;13.58;57.98;98035.98;105262;1288;22594;-91
2022/05/04 06:13:18;;;;;;;11.90;10.00;;;;;;;13.61;57.44;98040.02;105207;1287;22547;-86
2022/05/04 06:15:47;;;;;;;11.70;10.60;;;;;;;13.62;57.25;98040.05;105271;1287;22878;-89
2022/05/04 06:18:15;;;;;;;10.70;9.70;;;;;;;13.63;56.97;98040.77;105185;1287;25686;-89
2022/05/04 06:20:43;;;;;;;12.90;11.50;;;;;;;13.65;57.01;98041.95;105325;1288;25434;-90
2022/05/04 06:23:11;;;;;;;10.30;9.30;;;;;;;13.72;57.02;98048.05;105415;1287;22570;-89
2022/05/04 06:25:41;;;;;;;11.70;10.20;;;;;;;13.77;56.78;98048.61;105286;1289;22675;-92
2022/05/04 06:28:09;;;;;;;13.60;9.80;;;;;;;13.81;56.52;98048.65;105362;1288;24299;-90
2022/05/04 06:36:17;;;;;;;173.90;48.30;;;;;;;14.06;55.88;98047.80;105510;1287;25312;-86
2022/05/04 06:38:45;;;;;;;85.30;30.50;;;;;;;14.13;56.02;98051.20;105489;1287;22570;-91
2022/05/04 06:41:14;;;;;;;215.20;57.00;;;;;;;14.21;55.81;98049.14;105262;1287;23221;-89
2022/05/04 06:43:43;;;;;;;142.10;40.60;;;;;;;14.28;55.56;98050.42;107604;1286;22573;-88
2022/05/04 06:46:12;;;;;;;41.00;19.10;;;;;;;14.39;55.64;98053.34;108316;1286;22636;-92
2022/05/04 06:48:40;;;;;;;35.20;17.60;;;;;;;14.47;55.47;98050.86;107351;1288;22742;-91
2022/05/04 06:51:08;;;;;;;20.40;14.60;;;;;;;14.54;55.16;98050.71;105974;1287;22721;-92
2022/05/04 06:53:36;;;;;;;60.50;12.90;;;;;;;14.62;55.13;98051.01;106383;1287;24273;-93
2022/05/04 06:56:16;;;;;;;14.30;12.10;;;;;;;14.70;55.11;98046.52;106497;1287;22556;-93
2022/05/04 06:58:45;;;;;;;21.30;12.10;;;;;;;14.76;55.05;98041.70;106404;1287;23334;-93
2022/05/04 07:01:13;;;;;;;16.40;10.10;;;;;;;14.89;55.04;98045.17;105656;1287;22675;-92
2022/05/04 07:03:41;;;;;;;15.30;11.30;;;;;;;15.01;54.99;98044.05;106019;1287;25643;-94
2022/05/04 07:06:10;;;;;;;13.00;10.60;;;;;;;15.12;54.86;98048.23;107406;1286;22670;-89
2022/05/04 07:08:38;;;;;;;12.10;10.80;;;;;;;15.18;54.69;98045.30;106514;1287;22579;-91
2022/05/04 07:11:06;;;;;;;12.30;11.10;;;;;;;15.24;54.40;98048.09;105478;1287;25448;-92
2022/05/04 07:13:34;;;;;;;17.60;11.50;;;;;;;15.33;54.29;98049.01;105430;1287;22663;-92
2022/05/04 07:16:03;;;;;;;12.70;10.40;;;;;;;15.45;54.43;98050.34;105373;1287;25617;-91
2022/05/04 07:18:30;;;;;;;16.20;10.50;;;;;;;15.57;54.24;98049.86;106139;1287;25930;-91
2022/05/04 07:20:58;;;;;;;16.50;10.50;;;;;;;15.64;53.88;98056.47;106144;1287;22572;-92
2022/05/04 07:23:28;;;;;;;249.20;20.70;;;;;;;15.69;53.77;98056.39;106646;1287;22705;-90
2022/05/04 07:25:56;;;;;;;31.30;13.00;;;;;;;15.77;53.68;98057.84;106674;1287;22694;-90
2022/05/04 07:28:26;;;;;;;13.90;9.60;;;;;;;15.87;53.53;98056.31;105437;1289;23917;-92
2022/05/04 07:30:54;;;;;;;16.50;10.00;;;;;;;15.93;53.28;98057.73;105210;1288;22697;-91
2022/05/04 07:33:22;;;;;;;13.40;10.60;;;;;;;15.97;53.13;98062.41;105351;1287;25414;-90
2022/05/04 07:35:50;;;;;;;12.50;9.90;;;;;;;16.01;52.75;98063.80;105394;1287;22671;-90
2022/05/04 07:38:18;;;;;;;11.60;9.00;;;;;;;16.05;52.58;98067.92;104843;1287;22635;-91
2022/05/04 07:43:33;;;;;;;9.90;8.80;;;;;;;16.19;52.16;98068.05;105376;1287;25920;-89
2022/05/04 07:46:01;;;;;;;12.70;9.20;;;;;;;16.29;52.02;98069.28;105406;1287;24814;-91
2022/05/04 07:48:29;;;;;;;10.80;9.00;;;;;;;16.38;51.67;98072.55;105334;1287;24210;-91
2022/05/04 07:50:57;;;;;;;11.40;8.20;;;;;;;16.41;51.18;98067.85;105694;1288;22656;-91
2022/05/04 07:53:25;;;;;;;12.70;9.40;;;;;;;16.49;51.11;98069.64;105501;1287;22605;-90
2022/05/04 07:55:53;;;;;;;13.70;8.50;;;;;;;16.53;51.02;98065.95;105448;1287;24426;-86
2022/05/04 07:58:21;;;;;;;12.60;9.60;;;;;;;16.58;50.88;98067.60;105390;1288;24402;-91
2022/05/04 08:06:24;;;;;;;13.90;8.60;;;;;;;16.83;50.52;98062.23;106172;1287;22714;-91
2022/05/04 08:08:52;;;;;;;11.50;8.50;;;;;;;16.93;49.85;98069.35;106445;1287;25397;-89
2022/05/04 08:11:20;;;;;;;10.90;7.80;;;;;;;17.00;49.78;98062.58;105702;1289;22941;-90
2022/05/04 08:13:47;;;;;;;13.30;8.80;;;;;;;17.08;49.50;98064.35;105436;1287;24383;-88
2022/05/04 08:16:15;;;;;;;10.40;8.40;;;;;;;17.14;49.01;98067.65;105038;1288;25396;-92
2022/05/04 08:18:43;;;;;;;12.80;8.40;;;;;;;17.20;49.05;98065.51;105496;1287;22820;-91
2022/05/04 08:21:11;;;;;;;11.20;8.10;;;;;;;17.28;48.84;98069.73;106316;1287;22573;-89
2022/05/04 08:23:39;;;;;;;11.40;8.30;;;;;;;17.35;48.91;98074.64;107026;1287;22666;-90
2022/05/04 08:26:07;;;;;;;15.90;9.60;;;;;;;17.46;48.84;98069.64;105987;1287;25368;-89
2022/05/04 08:28:35;;;;;;;13.20;8.50;;;;;;;17.60;48.50;98069.01;105287;1287;25618;-88
2022/05/04 08:31:04;;;;;;;13.00;9.30;;;;;;;17.69;47.92;98071.31;105081;1288;23874;-89
2022/05/04 08:33:32;;;;;;;10.70;8.90;;;;;;;17.76;48.00;98073.24;105212;1287;23575;-90
2022/05/04 08:36:00;;;;;;;11.80;8.80;;;;;;;17.87;47.97;98074.94;105385;1287;22590;-92
2022/05/04 08:38:28;;;;;;;8.80;7.80;;;;;;;17.99;47.36;98071.73;105638;1287;25384;-90
2022/05/04 08:40:57;;;;;;;13.70;9.40;;;;;;;18.11;47.65;98069.03;105234;1289;25450;-90
2022/05/04 08:43:26;;;;;;;12.20;10.00;;;;;;;18.24;47.17;98064.18;105217;1287;22593;-92
2022/05/04 08:45:54;;;;;;;12.70;9.20;;;;;;;18.36;47.19;98065.95;105217;1287;24817;-92
2022/05/04 08:48:23;;;;;;;10.10;8.90;;;;;;;18.45;47.03;98065.35;105519;1287;22580;-91
2022/05/04 08:50:51;;;;;;;13.80;9.40;;;;;;;18.56;46.57;98066.98;106464;1287;22597;-91
2022/05/04 08:53:19;;;;;;;11.90;9.00;;;;;;;18.59;46.33;98069.89;105558;1287;23031;-90
2022/05/04 08:55:47;;;;;;;19.30;9.60;;;;;;;18.65;46.02;98071.77;105190;1287;22581;-90
2022/05/04 08:58:15;;;;;;;12.70;8.50;;;;;;;18.73;45.89;98063.58;105273;1287;24236;-88
2022/05/04 09:00:43;;;;;;;9.20;8.30;;;;;;;18.84;45.84;98063.50;105211;1287;22569;-86
2022/05/04 09:03:11;;;;;;;10.70;8.50;;;;;;;18.94;45.51;98062.73;105030;1287;22627;-83
2022/05/04 09:05:45;;;;;;;10.60;8.90;;;;;;;19.01;44.96;98059.52;105180;1287;23143;-83
2022/05/04 09:08:52;;;;;;;10.80;8.00;;;;;;;19.14;45.27;98060.85;104974;1287;22564;-84
2022/05/04 09:11:24;;;;;;;9.50;7.40;;;;;;;19.28;44.81;98055.58;105198;1287;22797;-81
2022/05/04 09:13:52;;;;;;;11.30;8.20;;;;;;;19.43;44.99;98056.20;105118;1287;23944;-84
2022/05/04 09:16:28;;;;;;;9.30;7.70;;;;;;;19.61;44.76;98056.52;104892;1287;25493;-81
2022/05/04 09:19:00;;;;;;;9.20;7.60;;;;;;;19.74;44.27;98057.59;105192;1287;22790;-82
2022/05/04 09:21:28;;;;;;;11.40;8.00;;;;;;;19.86;44.05;98056.04;105287;1287;22887;-82
2022/05/04 09:23:56;;;;;;;10.00;8.30;;;;;;;19.99;43.90;98058.67;105207;1287;25387;-82
2022/05/04 09:26:24;;;;;;;9.40;8.40;;;;;;;20.10;43.51;98051.83;105199;1286;22640;-82
2022/05/04 09:28:59;;;;;;;11.80;8.50;;;;;;;20.26;43.20;98052.23;104940;1287;23158;-80
2022/05/04 09:31:32;;;;;;;14.10;9.40;;;;;;;20.37;43.15;98051.16;105238;1287;24446;-81
2022/05/04 09:34:02;;;;;;;10.20;9.00;;;;;;;20.46;42.57;98056.40;104922;1288;22694;-81
2022/05/04 09:36:32;;;;;;;9.60;8.40;;;;;;;20.38;41.85;98053.20;105171;1287;24235;-81
2022/05/04 09:45:14;;;;;;;9.50;8.30;;;;;;;19.69;42.17;98058.86;105358;1287;22728;-80
2022/05/04 09:47:47;;;;;;;11.30;8.60;;;;;;;19.51;42.09;98059.04;105351;1287;25123;-82
2022/05/04 09:50:17;;;;;;;9.50;8.00;;;;;;;19.34;41.94;98055.80;105279;1287;25556;-81
2022/05/04 09:52:50;;;;;;;9.50;7.40;;;;;;;19.24;41.97;98055.02;105249;1287;22575;-80
2022/05/04 09:55:24;;;;;;;13.00;8.00;;;;;;;19.09;41.76;98057.98;105410;1287;24435;-80
2022/05/04 09:57:54;;;;;;;8.40;7.30;;;;;;;18.86;41.29;98054.02;106041;1287;22652;-80
2022/05/04 10:00:26;;;;;;;11.30;7.80;;;;;;;18.63;40.87;98054.69;105266;1287;22614;-80
2022/05/04 10:02:56;;;;;;;18.70;17.00;;;;;;;18.43;41.25;98055.70;105284;1287;25261;-82
2022/05/04 10:05:24;;;;;;;18.90;11.70;;;;;;;18.35;41.67;98057.89;105384;1287;24315;-79
2022/05/04 10:07:52;;;;;;;10.90;9.80;;;;;;;18.33;41.66;98054.42;105360;1286;22936;-82
2022/05/04 10:10:21;;;;;;;14.00;8.60;;;;;;;18.32;41.60;98054.77;105120;1287;22750;-82
2022/05/04 10:12:50;;;;;;;10.10;8.90;;;;;;;18.28;41.57;98051.92;105181;1287;22566;-82
2022/05/04 10:15:20;;;;;;;10.20;7.70;;;;;;;18.36;41.77;98050.83;105162;1287;22876;-82
2022/05/04 10:17:57;;;;;;;12.10;8.80;;;;;;;18.57;41.45;98045.73;104797;1287;203814;-81
2022/05/04 10:20:37;;;;;;;8.80;8.00;;;;;;;18.88;41.67;98044.31;105228;1286;24628;-82
2022/05/04 10:23:20;;;;;;;14.10;8.30;;;;;;;19.28;41.65;98043.66;105184;1287;24235;-82
2022/05/04 10:25:50;;;;;;;8.90;7.80;;;;;;;19.72;41.52;98044.41;105333;1286;25180;-82
2022/05/04 10:28:18;;;;;;;9.80;8.30;;;;;;;20.01;40.98;98043.42;105331;1287;24932;-81
2022/05/04 10:30:55;;;;;;;10.40;8.70;;;;;;;20.05;40.61;98041.62;105285;1287;26634;-80
2022/05/04 10:33:35;;;;;;;13.10;8.40;;;;;;;20.06;40.66;98037.66;105185;1287;23980;-81
2022/05/04 10:36:30;;;;;;;10.30;8.80;;;;;;;20.05;40.62;98035.61;105081;1288;22705;-81
2022/05/04 10:39:04;;;;;;;11.60;8.30;;;;;;;20.06;40.64;98040.48;105015;1286;22556;-79
2022/05/04 10:41:42;;;;;;;13.10;8.50;;;;;;;20.00;40.31;98043.95;105215;1287;22672;-82
2022/05/04 10:44:10;;;;;;;13.00;8.40;;;;;;;19.85;40.17;98048.14;105252;1287;22576;-82
2022/05/04 10:46:41;;;;;;;13.50;8.50;;;;;;;19.75;39.95;98041.43;105629;1286;22754;-80
2022/05/04 10:49:13;;;;;;;12.70;9.50;;;;;;;19.57;39.44;98039.56;107996;1287;22618;-81
2022/05/04 10:51:47;;;;;;;9.20;8.00;;;;;;;19.40;40.08;98040.27;108022;1287;22568;-80
2022/05/04 10:54:18;;;;;;;9.30;7.70;;;;;;;19.42;40.24;98032.97;107502;1286;25323;-80
2022/05/04 10:56:54;;;;;;;14.70;8.30;;;;;;;19.60;40.45;98028.34;105227;1287;22572;-80
2022/05/04 10:59:27;;;;;;;10.30;8.70;;;;;;;19.86;40.51;98030.44;105134;1287;23460;-81
2022/05/04 11:01:57;;;;;;;12.80;9.10;;;;;;;20.16;40.29;98026.07;104997;1289;24807;-81
2022/05/04 11:04:25;;;;;;;12.30;8.20;;;;;;;20.34;40.26;98031.21;104952;1289;22707;-81
2022/05/04 11:06:53;;;;;;;13.20;9.40;;;;;;;20.46;40.09;98028.64;105041;1289;25606;-81
2022/05/04 11:09:29;;;;;;;13.30;8.70;;;;;;;20.49;39.87;98027.30;105094;1289;25312;-81
2022/05/04 11:12:01;;;;;;;9.80;8.80;;;;;;;20.42;39.13;98019.56;104948;1289;23941;-80
2022/05/04 11:14:29;;;;;;;13.00;9.00;;;;;;;20.25;39.01;98023.30;104887;1289;22564;-81
2022/05/04 11:16:58;;;;;;;13.50;8.90;;;;;;;20.03;39.03;98027.44;105120;1286;22569;-81
2022/05/04 11:19:32;;;;;;;10.40;8.20;;;;;;;19.77;39.29;98026.00;104874;1287;25380;-81
2022/05/04 11:22:01;;;;;;;13.10;9.30;;;;;;;19.61;39.28;98027.41;104953;1287;22880;-81
2022/05/04 11:24:29;;;;;;;12.10;9.30;;;;;;;19.50;39.29;98033.88;105130;1287;22595;-81
2022/05/04 11:26:57;;;;;;;15.30;9.40;;;;;;;19.42;39.59;98031.80;105179;1287;24235;-81
2022/05/04 11:29:27;;;;;;;11.20;8.60;;;;;;;19.33;39.28;98033.92;104900;1288;22669;-81
2022/05/04 11:31:57;;;;;;;10.60;8.70;;;;;;;19.24;39.46;98028.70;105181;1287;25369;-81
2022/05/04 11:34:34;;;;;;;12.30;9.00;;;;;;;19.21;39.50;98032.85;105150;1287;23243;-81
2022/05/04 11:37:03;;;;;;;9.60;8.60;;;;;;;19.18;39.42;98033.65;105162;1288;22699;-81
2022/05/04 11:39:33;;;;;;;12.70;8.10;;;;;;;19.18;39.40;98029.50;105083;1286;22743;-81
2022/05/04 11:42:03;;;;;;;13.40;8.50;;;;;;;19.21;39.64;98031.53;105352;1286;22669;-80
2022/05/04 11:44:32;;;;;;;11.30;9.00;;;;;;;19.26;39.63;98031.02;105402;1286;25344;-81
2022/05/04 11:47:02;;;;;;;11.00;8.50;;;;;;;19.28;39.43;98024.92;105302;1286;24674;-81
2022/05/04 11:49:32;;;;;;;9.20;8.20;;;;;;;19.32;39.35;98023.98;105005;1287;23234;-82
2022/05/04 11:52:02;;;;;;;16.70;9.00;;;;;;;19.46;39.57;98022.21;105248;1286;22810;-80